sensor_id;sensor_type;location;lat;lon;timestamp;P1;durP1;ratioP1;P2;durP2;ratioP2
5696;SDS011;2873;50.966;7.210;2023-03-23T00:00:46;2.50;;;1.60;;
5696;SDS011;2873;50.966;7.210;2023-03-23T00:03:12;3.08;;;1.67;;
5696;SDS011;2873;50.966;7.210;2023-03-23T00:05:38;3.40;;;1.73;;
5696;SDS011;2873;50.966;7.210;2023-03-23T00:08:06;2.80;;;1.50;;
5696;SDS011;2873;50.966;7.210;2023-03-23T00:10:34;2.22;;;1.38;;
5696;SDS011;2873;50.966;7.210;2023-03-23T00:13:00;3.08;;;1.48;;
5696;SDS011;2873;50.966;7.210;2023-03-23T00:15:29;2.38;;;1.50;;
5696;SDS011;2873;50.966;7.210;2023-03-23T00:17:58;2.80;;;1.73;;
5696;SDS011;2873;50.966;7.210;2023-03-23T00:20:27;2.10;;;1.75;;
5696;SDS011;2873;50.966;7.210;2023-03-23T00:22:54;2.10;;;1.67;;
5696;SDS011;2873;50.966;7.210;2023-03-23T00:25:24;1.70;;;1.58;;
5696;SDS011;2873;50.966;7.210;2023-03-23T00:27:50;2.23;;;1.40;;
5696;SDS011;2873;50.966;7.210;2023-03-23T00:30:16;3.80;;;1.40;;
5696;SDS011;2873;50.966;7.210;2023-03-23T00:32:42;1.60;;;1.50;;
5696;SDS011;2873;50.966;7.210;2023-03-23T00:35:08;2.13;;;1.50;;
5696;SDS011;2873;50.966;7.210;2023-03-23T00:37:34;2.30;;;1.40;;
5696;SDS011;2873;50.966;7.210;2023-03-23T00:40:00;1.30;;;1.20;;
5696;SDS011;2873;50.966;7.210;2023-03-23T00:42:31;1.50;;;1.40;;
5696;SDS011;2873;50.966;7.210;2023-03-23T00:45:01;1.50;;;1.40;;
5696;SDS011;2873;50.966;7.210;2023-03-23T00:47:27;1.60;;;1.42;;
5696;SDS011;2873;50.966;7.210;2023-03-23T00:49:53;1.50;;;1.40;;
5696;SDS011;2873;50.966;7.210;2023-03-23T00:52:21;2.30;;;1.30;;
5696;SDS011;2873;50.966;7.210;2023-03-23T00:54:47;1.55;;;1.45;;
5696;SDS011;2873;50.966;7.210;2023-03-23T00:57:13;1.30;;;1.20;;
5696;SDS011;2873;50.966;7.210;2023-03-23T00:59:38;1.35;;;1.25;;
5696;SDS011;2873;50.966;7.210;2023-03-23T01:02:04;1.50;;;1.40;;
5696;SDS011;2873;50.966;7.210;2023-03-23T01:04:29;2.92;;;1.20;;
5696;SDS011;2873;50.966;7.210;2023-03-23T01:06:56;1.88;;;1.35;;
5696;SDS011;2873;50.966;7.210;2023-03-23T01:09:22;2.40;;;1.25;;
5696;SDS011;2873;50.966;7.210;2023-03-23T01:11:49;1.40;;;1.30;;
5696;SDS011;2873;50.966;7.210;2023-03-23T01:14:16;1.10;;;1.10;;
5696;SDS011;2873;50.966;7.210;2023-03-23T01:16:43;1.63;;;1.20;;
5696;SDS011;2873;50.966;7.210;2023-03-23T01:19:09;1.50;;;1.40;;
5696;SDS011;2873;50.966;7.210;2023-03-23T01:21:35;1.60;;;1.50;;
5696;SDS011;2873;50.966;7.210;2023-03-23T01:24:01;1.35;;;1.25;;
5696;SDS011;2873;50.966;7.210;2023-03-23T01:26:27;1.20;;;1.20;;
5696;SDS011;2873;50.966;7.210;2023-03-23T01:28:53;2.60;;;1.52;;
5696;SDS011;2873;50.966;7.210;2023-03-23T01:31:21;1.45;;;1.45;;
5696;SDS011;2873;50.966;7.210;2023-03-23T01:33:48;1.80;;;1.40;;
5696;SDS011;2873;50.966;7.210;2023-03-23T01:36:20;1.60;;;1.50;;
5696;SDS011;2873;50.966;7.210;2023-03-23T01:38:48;2.90;;;1.55;;
5696;SDS011;2873;50.966;7.210;2023-03-23T01:41:15;1.20;;;1.20;;
5696;SDS011;2873;50.966;7.210;2023-03-23T01:43:55;1.40;;;1.30;;
5696;SDS011;2873;50.966;7.210;2023-03-23T01:46:32;3.50;;;1.90;;
5696;SDS011;2873;50.966;7.210;2023-03-23T01:49:02;1.80;;;1.70;;
5696;SDS011;2873;50.966;7.210;2023-03-23T01:51:34;1.60;;;1.50;;
5696;SDS011;2873;50.966;7.210;2023-03-23T01:54:03;3.47;;;1.60;;
5696;SDS011;2873;50.966;7.210;2023-03-23T01:56:41;2.00;;;1.70;;
5696;SDS011;2873;50.966;7.210;2023-03-23T01:59:12;2.20;;;1.80;;
5696;SDS011;2873;50.966;7.210;2023-03-23T02:01:38;2.67;;;1.83;;
5696;SDS011;2873;50.966;7.210;2023-03-23T02:04:09;1.77;;;1.67;;
5696;SDS011;2873;50.966;7.210;2023-03-23T02:06:36;2.75;;;1.88;;
5696;SDS011;2873;50.966;7.210;2023-03-23T02:09:02;4.00;;;1.90;;
5696;SDS011;2873;50.966;7.210;2023-03-23T02:11:31;3.20;;;1.90;;
5696;SDS011;2873;50.966;7.210;2023-03-23T02:13:57;3.10;;;1.90;;
5696;SDS011;2873;50.966;7.210;2023-03-23T02:18:58;2.95;;;2.20;;
5696;SDS011;2873;50.966;7.210;2023-03-23T02:21:59;2.22;;;2.03;;
5696;SDS011;2873;50.966;7.210;2023-03-23T02:24:51;4.20;;;2.50;;
5696;SDS011;2873;50.966;7.210;2023-03-23T02:27:39;2.28;;;2.08;;
5696;SDS011;2873;50.966;7.210;2023-03-23T02:30:37;2.20;;;1.80;;
5696;SDS011;2873;50.966;7.210;2023-03-23T02:36:02;2.10;;;1.90;;
5696;SDS011;2873;50.966;7.210;2023-03-23T02:38:43;3.08;;;2.05;;
5696;SDS011;2873;50.966;7.210;2023-03-23T02:41:16;2.90;;;2.30;;
5696;SDS011;2873;50.966;7.210;2023-03-23T02:43:45;2.22;;;1.88;;
5696;SDS011;2873;50.966;7.210;2023-03-23T02:46:12;2.08;;;1.80;;
5696;SDS011;2873;50.966;7.210;2023-03-23T02:48:40;2.67;;;2.20;;
5696;SDS011;2873;50.966;7.210;2023-03-23T02:51:08;3.00;;;1.90;;
5696;SDS011;2873;50.966;7.210;2023-03-23T02:53:37;1.95;;;1.85;;
5696;SDS011;2873;50.966;7.210;2023-03-23T02:56:05;2.50;;;2.10;;
5696;SDS011;2873;50.966;7.210;2023-03-23T02:58:33;7.40;;;2.30;;
5696;SDS011;2873;50.966;7.210;2023-03-23T03:00:59;2.90;;;2.00;;
5696;SDS011;2873;50.966;7.210;2023-03-23T03:03:26;2.70;;;2.10;;
5696;SDS011;2873;50.966;7.210;2023-03-23T03:06:05;1.95;;;1.80;;
5696;SDS011;2873;50.966;7.210;2023-03-23T03:08:46;2.40;;;1.70;;
5696;SDS011;2873;50.966;7.210;2023-03-23T03:11:17;6.20;;;1.90;;
5696;SDS011;2873;50.966;7.210;2023-03-23T03:14:10;2.00;;;1.70;;
5696;SDS011;2873;50.966;7.210;2023-03-23T03:16:56;2.38;;;1.75;;
5696;SDS011;2873;50.966;7.210;2023-03-23T03:19:35;1.70;;;1.60;;
5696;SDS011;2873;50.966;7.210;2023-03-23T03:22:05;1.70;;;1.60;;
5696;SDS011;2873;50.966;7.210;2023-03-23T03:24:32;2.80;;;1.60;;
5696;SDS011;2873;50.966;7.210;2023-03-23T03:27:02;2.20;;;1.70;;
5696;SDS011;2873;50.966;7.210;2023-03-23T03:29:33;2.17;;;1.50;;
5696;SDS011;2873;50.966;7.210;2023-03-23T03:32:03;3.10;;;1.60;;
5696;SDS011;2873;50.966;7.210;2023-03-23T03:34:31;1.70;;;1.60;;
5696;SDS011;2873;50.966;7.210;2023-03-23T03:36:58;2.00;;;1.50;;
5696;SDS011;2873;50.966;7.210;2023-03-23T03:39:25;1.70;;;1.60;;
5696;SDS011;2873;50.966;7.210;2023-03-23T03:41:52;1.33;;;1.30;;
5696;SDS011;2873;50.966;7.210;2023-03-23T03:44:17;1.33;;;1.23;;
5696;SDS011;2873;50.966;7.210;2023-03-23T03:46:43;1.42;;;1.33;;
5696;SDS011;2873;50.966;7.210;2023-03-23T03:49:09;1.50;;;1.40;;
5696;SDS011;2873;50.966;7.210;2023-03-23T03:51:39;1.40;;;1.30;;
5696;SDS011;2873;50.966;7.210;2023-03-23T03:54:05;4.32;;;1.42;;
5696;SDS011;2873;50.966;7.210;2023-03-23T03:56:31;1.70;;;1.50;;
5696;SDS011;2873;50.966;7.210;2023-03-23T03:58:59;3.28;;;1.50;;
5696;SDS011;2873;50.966;7.210;2023-03-23T04:01:25;3.00;;;2.00;;
5696;SDS011;2873;50.966;7.210;2023-03-23T04:03:51;1.60;;;1.50;;
5696;SDS011;2873;50.966;7.210;2023-03-23T04:06:17;1.60;;;1.50;;
5696;SDS011;2873;50.966;7.210;2023-03-23T04:08:43;1.58;;;1.50;;
5696;SDS011;2873;50.966;7.210;2023-03-23T04:11:10;2.90;;;1.70;;
5696;SDS011;2873;50.966;7.210;2023-03-23T04:13:37;2.00;;;1.70;;
5696;SDS011;2873;50.966;7.210;2023-03-23T04:16:03;1.70;;;1.60;;
5696;SDS011;2873;50.966;7.210;2023-03-23T04:18:29;2.10;;;1.30;;
5696;SDS011;2873;50.966;7.210;2023-03-23T04:20:57;2.33;;;1.50;;
5696;SDS011;2873;50.966;7.210;2023-03-23T04:23:24;2.00;;;1.70;;
5696;SDS011;2873;50.966;7.210;2023-03-23T04:25:50;1.50;;;1.40;;
5696;SDS011;2873;50.966;7.210;2023-03-23T04:28:17;2.97;;;1.50;;
5696;SDS011;2873;50.966;7.210;2023-03-23T04:30:43;1.80;;;1.60;;
5696;SDS011;2873;50.966;7.210;2023-03-23T04:33:10;1.40;;;1.40;;
5696;SDS011;2873;50.966;7.210;2023-03-23T04:35:40;1.50;;;1.50;;
5696;SDS011;2873;50.966;7.210;2023-03-23T04:38:11;1.20;;;1.20;;
5696;SDS011;2873;50.966;7.210;2023-03-23T04:40:38;1.90;;;1.80;;
5696;SDS011;2873;50.966;7.210;2023-03-23T04:43:05;1.80;;;1.70;;
5696;SDS011;2873;50.966;7.210;2023-03-23T04:45:32;1.77;;;1.60;;
5696;SDS011;2873;50.966;7.210;2023-03-23T04:47:58;1.60;;;1.50;;
5696;SDS011;2873;50.966;7.210;2023-03-23T04:50:26;1.35;;;1.30;;
5696;SDS011;2873;50.966;7.210;2023-03-23T04:52:55;1.70;;;1.60;;
5696;SDS011;2873;50.966;7.210;2023-03-23T04:55:22;1.55;;;1.45;;
5696;SDS011;2873;50.966;7.210;2023-03-23T04:57:49;1.55;;;1.45;;
5696;SDS011;2873;50.966;7.210;2023-03-23T05:00:14;1.70;;;1.60;;
5696;SDS011;2873;50.966;7.210;2023-03-23T05:02:41;1.70;;;1.60;;
5696;SDS011;2873;50.966;7.210;2023-03-23T05:05:09;1.50;;;1.40;;
5696;SDS011;2873;50.966;7.210;2023-03-23T05:07:36;2.30;;;1.60;;
5696;SDS011;2873;50.966;7.210;2023-03-23T05:10:03;2.10;;;1.50;;
5696;SDS011;2873;50.966;7.210;2023-03-23T05:12:30;2.97;;;1.80;;
5696;SDS011;2873;50.966;7.210;2023-03-23T05:14:56;1.90;;;1.80;;
5696;SDS011;2873;50.966;7.210;2023-03-23T05:17:21;1.70;;;1.60;;
5696;SDS011;2873;50.966;7.210;2023-03-23T05:19:49;1.60;;;1.60;;
5696;SDS011;2873;50.966;7.210;2023-03-23T05:22:15;1.58;;;1.48;;
5696;SDS011;2873;50.966;7.210;2023-03-23T05:24:41;1.77;;;1.50;;
5696;SDS011;2873;50.966;7.210;2023-03-23T05:27:07;1.75;;;1.63;;
5696;SDS011;2873;50.966;7.210;2023-03-23T05:29:36;5.15;;;1.80;;
5696;SDS011;2873;50.966;7.210;2023-03-23T05:32:05;1.65;;;1.55;;
5696;SDS011;2873;50.966;7.210;2023-03-23T05:34:32;4.55;;;2.00;;
5696;SDS011;2873;50.966;7.210;2023-03-23T05:37:01;1.88;;;1.77;;
5696;SDS011;2873;50.966;7.210;2023-03-23T05:39:28;2.42;;;1.80;;
5696;SDS011;2873;50.966;7.210;2023-03-23T05:41:54;2.53;;;1.90;;
5696;SDS011;2873;50.966;7.210;2023-03-23T05:44:20;2.28;;;1.75;;
5696;SDS011;2873;50.966;7.210;2023-03-23T05:46:46;1.90;;;1.60;;
5696;SDS011;2873;50.966;7.210;2023-03-23T05:49:12;1.70;;;1.60;;
5696;SDS011;2873;50.966;7.210;2023-03-23T05:51:40;2.63;;;1.60;;
5696;SDS011;2873;50.966;7.210;2023-03-23T05:54:07;1.98;;;1.88;;
5696;SDS011;2873;50.966;7.210;2023-03-23T05:56:33;1.90;;;1.80;;
5696;SDS011;2873;50.966;7.210;2023-03-23T05:58:59;1.77;;;1.67;;
5696;SDS011;2873;50.966;7.210;2023-03-23T06:01:25;1.83;;;1.73;;
5696;SDS011;2873;50.966;7.210;2023-03-23T06:03:50;1.85;;;1.70;;
5696;SDS011;2873;50.966;7.210;2023-03-23T06:06:18;2.72;;;2.53;;
5696;SDS011;2873;50.966;7.210;2023-03-23T06:08:45;1.98;;;1.88;;
5696;SDS011;2873;50.966;7.210;2023-03-23T06:11:10;2.07;;;1.97;;
5696;SDS011;2873;50.966;7.210;2023-03-23T06:13:36;1.75;;;1.65;;
5696;SDS011;2873;50.966;7.210;2023-03-23T06:16:02;2.92;;;1.55;;
5696;SDS011;2873;50.966;7.210;2023-03-23T06:18:29;2.30;;;2.10;;
5696;SDS011;2873;50.966;7.210;2023-03-23T06:20:58;1.83;;;1.70;;
5696;SDS011;2873;50.966;7.210;2023-03-23T06:23:25;4.30;;;1.80;;
5696;SDS011;2873;50.966;7.210;2023-03-23T06:25:53;2.47;;;1.63;;
5696;SDS011;2873;50.966;7.210;2023-03-23T06:28:20;1.80;;;1.60;;
5696;SDS011;2873;50.966;7.210;2023-03-23T06:30:45;1.60;;;1.50;;
5696;SDS011;2873;50.966;7.210;2023-03-23T06:33:10;1.80;;;1.60;;
5696;SDS011;2873;50.966;7.210;2023-03-23T06:35:36;2.90;;;1.80;;
5696;SDS011;2873;50.966;7.210;2023-03-23T06:38:02;1.80;;;1.70;;
5696;SDS011;2873;50.966;7.210;2023-03-23T06:40:27;2.67;;;1.77;;
5696;SDS011;2873;50.966;7.210;2023-03-23T06:42:54;1.50;;;1.40;;
5696;SDS011;2873;50.966;7.210;2023-03-23T06:45:24;3.85;;;1.60;;
5696;SDS011;2873;50.966;7.210;2023-03-23T06:47:50;2.35;;;1.75;;
5696;SDS011;2873;50.966;7.210;2023-03-23T06:50:15;1.73;;;1.70;;
5696;SDS011;2873;50.966;7.210;2023-03-23T06:52:45;2.03;;;1.73;;
5696;SDS011;2873;50.966;7.210;2023-03-23T06:55:11;2.85;;;1.60;;
5696;SDS011;2873;50.966;7.210;2023-03-23T06:57:38;1.70;;;1.60;;
5696;SDS011;2873;50.966;7.210;2023-03-23T07:00:03;3.10;;;1.50;;
5696;SDS011;2873;50.966;7.210;2023-03-23T07:02:42;2.10;;;1.50;;
5696;SDS011;2873;50.966;7.210;2023-03-23T07:05:09;1.60;;;1.50;;
5696;SDS011;2873;50.966;7.210;2023-03-23T07:07:36;1.57;;;1.20;;
5696;SDS011;2873;50.966;7.210;2023-03-23T07:10:02;1.70;;;1.60;;
5696;SDS011;2873;50.966;7.210;2023-03-23T07:12:29;4.10;;;1.60;;
5696;SDS011;2873;50.966;7.210;2023-03-23T07:14:55;2.07;;;1.50;;
5696;SDS011;2873;50.966;7.210;2023-03-23T07:17:20;1.80;;;1.70;;
5696;SDS011;2873;50.966;7.210;2023-03-23T07:19:46;1.30;;;1.20;;
5696;SDS011;2873;50.966;7.210;2023-03-23T07:22:12;4.28;;;1.50;;
5696;SDS011;2873;50.966;7.210;2023-03-23T07:24:37;1.70;;;1.30;;
5696;SDS011;2873;50.966;7.210;2023-03-23T07:27:03;1.50;;;1.30;;
5696;SDS011;2873;50.966;7.210;2023-03-23T07:29:28;1.37;;;1.23;;
5696;SDS011;2873;50.966;7.210;2023-03-23T07:31:54;4.10;;;1.40;;
5696;SDS011;2873;50.966;7.210;2023-03-23T07:34:20;1.57;;;1.43;;
5696;SDS011;2873;50.966;7.210;2023-03-23T07:36:46;2.03;;;1.50;;
5696;SDS011;2873;50.966;7.210;2023-03-23T07:39:12;6.87;;;1.50;;
5696;SDS011;2873;50.966;7.210;2023-03-23T07:41:38;1.40;;;1.30;;
5696;SDS011;2873;50.966;7.210;2023-03-23T07:44:04;4.40;;;1.20;;
5696;SDS011;2873;50.966;7.210;2023-03-23T07:46:30;1.27;;;1.10;;
5696;SDS011;2873;50.966;7.210;2023-03-23T07:48:56;3.45;;;1.30;;
5696;SDS011;2873;50.966;7.210;2023-03-23T07:51:22;1.30;;;1.20;;
5696;SDS011;2873;50.966;7.210;2023-03-23T07:53:49;3.25;;;1.10;;
5696;SDS011;2873;50.966;7.210;2023-03-23T07:56:15;1.50;;;1.40;;
5696;SDS011;2873;50.966;7.210;2023-03-23T07:58:44;2.05;;;1.10;;
5696;SDS011;2873;50.966;7.210;2023-03-23T08:01:12;2.60;;;1.50;;
5696;SDS011;2873;50.966;7.210;2023-03-23T08:03:39;2.28;;;1.40;;
5696;SDS011;2873;50.966;7.210;2023-03-23T08:06:04;2.60;;;1.30;;
5696;SDS011;2873;50.966;7.210;2023-03-23T08:08:31;2.60;;;1.40;;
5696;SDS011;2873;50.966;7.210;2023-03-23T08:10:57;1.45;;;1.30;;
5696;SDS011;2873;50.966;7.210;2023-03-23T08:13:24;2.00;;;1.50;;
5696;SDS011;2873;50.966;7.210;2023-03-23T08:15:49;3.40;;;1.20;;
5696;SDS011;2873;50.966;7.210;2023-03-23T08:18:16;1.60;;;1.00;;
5696;SDS011;2873;50.966;7.210;2023-03-23T08:20:42;1.77;;;0.98;;
5696;SDS011;2873;50.966;7.210;2023-03-23T08:23:09;2.20;;;1.00;;
5696;SDS011;2873;50.966;7.210;2023-03-23T08:25:35;3.03;;;1.48;;
5696;SDS011;2873;50.966;7.210;2023-03-23T08:28:01;3.10;;;1.20;;
5696;SDS011;2873;50.966;7.210;2023-03-23T08:30:26;1.20;;;1.10;;
5696;SDS011;2873;50.966;7.210;2023-03-23T08:32:54;1.38;;;1.30;;
5696;SDS011;2873;50.966;7.210;2023-03-23T08:35:21;1.92;;;1.42;;
5696;SDS011;2873;50.966;7.210;2023-03-23T08:37:46;2.57;;;1.30;;
5696;SDS011;2873;50.966;7.210;2023-03-23T08:40:16;2.00;;;1.30;;
5696;SDS011;2873;50.966;7.210;2023-03-23T08:42:44;4.30;;;0.93;;
5696;SDS011;2873;50.966;7.210;2023-03-23T08:45:11;1.80;;;1.10;;
5696;SDS011;2873;50.966;7.210;2023-03-23T08:47:39;1.40;;;1.30;;
5696;SDS011;2873;50.966;7.210;2023-03-23T08:50:06;2.17;;;1.30;;
5696;SDS011;2873;50.966;7.210;2023-03-23T08:52:33;3.78;;;1.20;;
5696;SDS011;2873;50.966;7.210;2023-03-23T08:54:59;3.50;;;1.20;;
5696;SDS011;2873;50.966;7.210;2023-03-23T08:57:25;2.38;;;1.15;;
5696;SDS011;2873;50.966;7.210;2023-03-23T08:59:51;2.90;;;1.30;;
5696;SDS011;2873;50.966;7.210;2023-03-23T09:02:19;2.17;;;1.27;;
5696;SDS011;2873;50.966;7.210;2023-03-23T09:04:45;4.50;;;1.33;;
5696;SDS011;2873;50.966;7.210;2023-03-23T09:07:11;4.57;;;1.40;;
5696;SDS011;2873;50.966;7.210;2023-03-23T09:09:39;3.50;;;1.40;;
5696;SDS011;2873;50.966;7.210;2023-03-23T09:12:06;3.73;;;1.30;;
5696;SDS011;2873;50.966;7.210;2023-03-23T09:14:35;1.80;;;1.13;;
5696;SDS011;2873;50.966;7.210;2023-03-23T09:17:01;4.97;;;1.43;;
5696;SDS011;2873;50.966;7.210;2023-03-23T09:19:27;3.00;;;1.60;;
5696;SDS011;2873;50.966;7.210;2023-03-23T09:21:54;2.70;;;1.50;;
5696;SDS011;2873;50.966;7.210;2023-03-23T09:24:19;4.38;;;1.08;;
5696;SDS011;2873;50.966;7.210;2023-03-23T09:26:45;2.00;;;1.30;;
5696;SDS011;2873;50.966;7.210;2023-03-23T09:29:11;4.33;;;1.30;;
5696;SDS011;2873;50.966;7.210;2023-03-23T09:31:37;3.60;;;1.20;;
5696;SDS011;2873;50.966;7.210;2023-03-23T09:34:05;1.90;;;1.20;;
5696;SDS011;2873;50.966;7.210;2023-03-23T09:36:34;4.40;;;1.60;;
5696;SDS011;2873;50.966;7.210;2023-03-23T09:39:01;4.07;;;1.13;;
5696;SDS011;2873;50.966;7.210;2023-03-23T09:41:47;2.60;;;1.30;;
5696;SDS011;2873;50.966;7.210;2023-03-23T09:44:24;2.20;;;1.50;;
5696;SDS011;2873;50.966;7.210;2023-03-23T09:47:21;4.20;;;1.30;;
5696;SDS011;2873;50.966;7.210;2023-03-23T09:49:57;3.00;;;1.27;;
5696;SDS011;2873;50.966;7.210;2023-03-23T09:52:34;2.30;;;1.20;;
5696;SDS011;2873;50.966;7.210;2023-03-23T09:55:04;4.40;;;1.20;;
5696;SDS011;2873;50.966;7.210;2023-03-23T10:00:30;2.25;;;1.20;;
5696;SDS011;2873;50.966;7.210;2023-03-23T10:03:02;5.43;;;1.20;;
5696;SDS011;2873;50.966;7.210;2023-03-23T10:05:45;5.50;;;1.20;;
5696;SDS011;2873;50.966;7.210;2023-03-23T10:08:13;4.30;;;1.50;;
5696;SDS011;2873;50.966;7.210;2023-03-23T10:15:50;5.07;;;1.30;;
5696;SDS011;2873;50.966;7.210;2023-03-23T10:18:20;3.60;;;1.30;;
5696;SDS011;2873;50.966;7.210;2023-03-23T10:20:55;3.43;;;1.20;;
5696;SDS011;2873;50.966;7.210;2023-03-23T10:26:04;3.08;;;1.08;;
5696;SDS011;2873;50.966;7.210;2023-03-23T10:28:40;2.00;;;1.00;;
5696;SDS011;2873;50.966;7.210;2023-03-23T10:31:12;3.20;;;1.30;;
5696;SDS011;2873;50.966;7.210;2023-03-23T10:33:44;4.22;;;1.20;;
5696;SDS011;2873;50.966;7.210;2023-03-23T10:36:17;2.47;;;1.35;;
5696;SDS011;2873;50.966;7.210;2023-03-23T10:38:58;4.30;;;1.20;;
5696;SDS011;2873;50.966;7.210;2023-03-23T10:41:40;3.13;;;0.77;;
5696;SDS011;2873;50.966;7.210;2023-03-23T10:44:16;2.27;;;0.77;;
5696;SDS011;2873;50.966;7.210;2023-03-23T10:49:15;0.90;;;0.73;;
5696;SDS011;2873;50.966;7.210;2023-03-23T10:51:53;0.70;;;0.50;;
5696;SDS011;2873;50.966;7.210;2023-03-23T10:54:45;1.20;;;0.80;;
5696;SDS011;2873;50.966;7.210;2023-03-23T10:57:24;2.58;;;0.70;;
5696;SDS011;2873;50.966;7.210;2023-03-23T10:59:57;1.98;;;0.70;;
5696;SDS011;2873;50.966;7.210;2023-03-23T11:02:32;1.97;;;0.83;;
5696;SDS011;2873;50.966;7.210;2023-03-23T11:05:04;3.03;;;0.73;;
5696;SDS011;2873;50.966;7.210;2023-03-23T11:07:37;0.70;;;0.50;;
5696;SDS011;2873;50.966;7.210;2023-03-23T11:10:05;1.60;;;0.50;;
5696;SDS011;2873;50.966;7.210;2023-03-23T11:12:43;0.70;;;0.70;;
5696;SDS011;2873;50.966;7.210;2023-03-23T11:15:18;1.80;;;0.80;;
5696;SDS011;2873;50.966;7.210;2023-03-23T11:17:54;1.70;;;0.80;;
5696;SDS011;2873;50.966;7.210;2023-03-23T11:20:22;3.20;;;0.80;;
5696;SDS011;2873;50.966;7.210;2023-03-23T11:22:48;2.80;;;0.80;;
5696;SDS011;2873;50.966;7.210;2023-03-23T11:25:13;8.02;;;0.60;;
5696;SDS011;2873;50.966;7.210;2023-03-23T11:27:39;1.80;;;0.60;;
5696;SDS011;2873;50.966;7.210;2023-03-23T11:30:10;0.90;;;0.70;;
5696;SDS011;2873;50.966;7.210;2023-03-23T11:32:44;1.60;;;0.70;;
5696;SDS011;2873;50.966;7.210;2023-03-23T11:35:15;1.50;;;1.10;;
5696;SDS011;2873;50.966;7.210;2023-03-23T11:37:45;2.70;;;0.52;;
5696;SDS011;2873;50.966;7.210;2023-03-23T11:40:15;2.40;;;0.60;;
5696;SDS011;2873;50.966;7.210;2023-03-23T11:42:56;0.80;;;0.60;;
5696;SDS011;2873;50.966;7.210;2023-03-23T11:48:37;0.80;;;0.60;;
5696;SDS011;2873;50.966;7.210;2023-03-23T11:51:22;2.10;;;0.90;;
5696;SDS011;2873;50.966;7.210;2023-03-23T11:56:45;0.60;;;0.60;;
5696;SDS011;2873;50.966;7.210;2023-03-23T11:59:13;1.00;;;0.80;;
5696;SDS011;2873;50.966;7.210;2023-03-23T12:13:05;3.30;;;0.80;;
5696;SDS011;2873;50.966;7.210;2023-03-23T12:18:18;1.20;;;0.60;;
5696;SDS011;2873;50.966;7.210;2023-03-23T12:24:27;1.00;;;0.50;;
5696;SDS011;2873;50.966;7.210;2023-03-23T12:26:37;1.30;;;0.65;;
5696;SDS011;2873;50.966;7.210;2023-03-23T12:29:27;0.70;;;0.50;;
5696;SDS011;2873;50.966;7.210;2023-03-23T12:40:31;4.80;;;0.80;;
5696;SDS011;2873;50.966;7.210;2023-03-23T12:48:33;0.70;;;0.70;;
5696;SDS011;2873;50.966;7.210;2023-03-23T12:56:59;2.28;;;0.90;;
5696;SDS011;2873;50.966;7.210;2023-03-23T13:03:05;3.10;;;1.00;;
5696;SDS011;2873;50.966;7.210;2023-03-23T13:05:48;1.20;;;1.10;;
5696;SDS011;2873;50.966;7.210;2023-03-23T13:08:27;2.30;;;1.10;;
5696;SDS011;2873;50.966;7.210;2023-03-23T13:11:02;4.07;;;1.00;;
5696;SDS011;2873;50.966;7.210;2023-03-23T13:13:40;1.30;;;1.20;;
5696;SDS011;2873;50.966;7.210;2023-03-23T13:16:22;3.97;;;1.38;;
5696;SDS011;2873;50.966;7.210;2023-03-23T13:22:14;1.58;;;0.95;;
5696;SDS011;2873;50.966;7.210;2023-03-23T13:24:50;2.40;;;1.20;;
5696;SDS011;2873;50.966;7.210;2023-03-23T13:27:22;2.63;;;0.95;;
5696;SDS011;2873;50.966;7.210;2023-03-23T13:29:50;1.40;;;1.00;;
5696;SDS011;2873;50.966;7.210;2023-03-23T13:32:16;1.92;;;0.90;;
5696;SDS011;2873;50.966;7.210;2023-03-23T13:34:43;0.88;;;0.82;;
5696;SDS011;2873;50.966;7.210;2023-03-23T13:37:22;2.50;;;0.82;;
5696;SDS011;2873;50.966;7.210;2023-03-23T13:42:28;4.45;;;1.00;;
5696;SDS011;2873;50.966;7.210;2023-03-23T13:45:15;1.38;;;0.90;;
5696;SDS011;2873;50.966;7.210;2023-03-23T13:48:02;3.40;;;1.25;;
5696;SDS011;2873;50.966;7.210;2023-03-23T13:50:50;2.45;;;1.00;;
5696;SDS011;2873;50.966;7.210;2023-03-23T13:53:24;1.60;;;1.00;;
5696;SDS011;2873;50.966;7.210;2023-03-23T13:56:13;1.40;;;1.10;;
5696;SDS011;2873;50.966;7.210;2023-03-23T13:58:48;1.00;;;0.70;;
5696;SDS011;2873;50.966;7.210;2023-03-23T14:01:19;2.88;;;1.00;;
5696;SDS011;2873;50.966;7.210;2023-03-23T14:03:58;1.90;;;0.80;;
5696;SDS011;2873;50.966;7.210;2023-03-23T14:06:25;1.73;;;1.10;;
5696;SDS011;2873;50.966;7.210;2023-03-23T14:09:04;2.13;;;1.00;;
5696;SDS011;2873;50.966;7.210;2023-03-23T14:11:32;3.00;;;1.20;;
5696;SDS011;2873;50.966;7.210;2023-03-23T14:16:41;1.38;;;1.10;;
5696;SDS011;2873;50.966;7.210;2023-03-23T14:19:28;1.80;;;0.90;;
5696;SDS011;2873;50.966;7.210;2023-03-23T14:21:56;3.73;;;1.13;;
5696;SDS011;2873;50.966;7.210;2023-03-23T14:24:24;3.07;;;1.30;;
5696;SDS011;2873;50.966;7.210;2023-03-23T14:27:02;4.20;;;1.37;;
5696;SDS011;2873;50.966;7.210;2023-03-23T14:29:40;3.20;;;1.20;;
5696;SDS011;2873;50.966;7.210;2023-03-23T14:32:06;5.80;;;1.50;;
5696;SDS011;2873;50.966;7.210;2023-03-23T14:34:35;1.80;;;1.20;;
5696;SDS011;2873;50.966;7.210;2023-03-23T14:37:01;1.83;;;1.08;;
5696;SDS011;2873;50.966;7.210;2023-03-23T14:39:28;3.92;;;1.10;;
5696;SDS011;2873;50.966;7.210;2023-03-23T14:41:56;1.42;;;1.00;;
5696;SDS011;2873;50.966;7.210;2023-03-23T14:44:39;2.65;;;1.20;;
5696;SDS011;2873;50.966;7.210;2023-03-23T14:47:09;3.90;;;1.30;;
5696;SDS011;2873;50.966;7.210;2023-03-23T14:49:41;3.67;;;1.13;;
5696;SDS011;2873;50.966;7.210;2023-03-23T14:52:09;2.83;;;1.10;;
5696;SDS011;2873;50.966;7.210;2023-03-23T14:54:37;2.10;;;1.30;;
5696;SDS011;2873;50.966;7.210;2023-03-23T14:57:13;2.33;;;1.10;;
5696;SDS011;2873;50.966;7.210;2023-03-23T14:59:42;4.95;;;1.20;;
5696;SDS011;2873;50.966;7.210;2023-03-23T15:02:31;3.40;;;1.60;;
5696;SDS011;2873;50.966;7.210;2023-03-23T15:08:02;5.57;;;1.40;;
5696;SDS011;2873;50.966;7.210;2023-03-23T15:10:31;4.70;;;1.30;;
5696;SDS011;2873;50.966;7.210;2023-03-23T15:12:57;3.00;;;1.15;;
5696;SDS011;2873;50.966;7.210;2023-03-23T15:17:53;2.75;;;1.15;;
5696;SDS011;2873;50.966;7.210;2023-03-23T15:20:30;2.60;;;1.05;;
5696;SDS011;2873;50.966;7.210;2023-03-23T15:23:16;3.95;;;1.42;;
5696;SDS011;2873;50.966;7.210;2023-03-23T15:25:47;4.50;;;1.70;;
5696;SDS011;2873;50.966;7.210;2023-03-23T15:28:19;2.30;;;1.23;;
5696;SDS011;2873;50.966;7.210;2023-03-23T15:30:57;1.40;;;1.03;;
5696;SDS011;2873;50.966;7.210;2023-03-23T15:33:33;3.13;;;1.40;;
5696;SDS011;2873;50.966;7.210;2023-03-23T15:36:13;2.00;;;1.10;;
5696;SDS011;2873;50.966;7.210;2023-03-23T15:38:42;2.90;;;1.00;;
5696;SDS011;2873;50.966;7.210;2023-03-23T15:41:19;3.15;;;1.40;;
5696;SDS011;2873;50.966;7.210;2023-03-23T15:43:54;2.72;;;1.20;;
5696;SDS011;2873;50.966;7.210;2023-03-23T15:46:25;2.83;;;1.20;;
5696;SDS011;2873;50.966;7.210;2023-03-23T15:51:24;2.20;;;1.10;;
5696;SDS011;2873;50.966;7.210;2023-03-23T15:53:54;2.22;;;1.10;;
5696;SDS011;2873;50.966;7.210;2023-03-23T15:56:21;2.60;;;1.27;;
5696;SDS011;2873;50.966;7.210;2023-03-23T15:58:47;3.05;;;1.40;;
5696;SDS011;2873;50.966;7.210;2023-03-23T16:01:14;2.50;;;1.00;;
5696;SDS011;2873;50.966;7.210;2023-03-23T16:03:56;7.38;;;1.50;;
5696;SDS011;2873;50.966;7.210;2023-03-23T16:06:29;4.97;;;1.40;;
5696;SDS011;2873;50.966;7.210;2023-03-23T16:08:56;5.53;;;1.50;;
5696;SDS011;2873;50.966;7.210;2023-03-23T16:11:23;2.90;;;1.30;;
5696;SDS011;2873;50.966;7.210;2023-03-23T16:13:52;2.20;;;1.10;;
5696;SDS011;2873;50.966;7.210;2023-03-23T16:16:19;2.30;;;1.20;;
5696;SDS011;2873;50.966;7.210;2023-03-23T16:18:59;4.10;;;1.40;;
5696;SDS011;2873;50.966;7.210;2023-03-23T16:21:24;6.95;;;1.30;;
5696;SDS011;2873;50.966;7.210;2023-03-23T16:23:50;4.90;;;1.50;;
5696;SDS011;2873;50.966;7.210;2023-03-23T16:26:16;5.20;;;1.08;;
5696;SDS011;2873;50.966;7.210;2023-03-23T16:28:42;4.10;;;1.30;;
5696;SDS011;2873;50.966;7.210;2023-03-23T16:31:08;3.05;;;1.50;;
5696;SDS011;2873;50.966;7.210;2023-03-23T16:33:34;4.60;;;1.27;;
5696;SDS011;2873;50.966;7.210;2023-03-23T16:36:00;4.00;;;1.10;;
5696;SDS011;2873;50.966;7.210;2023-03-23T16:38:25;5.47;;;1.60;;
5696;SDS011;2873;50.966;7.210;2023-03-23T16:40:51;3.95;;;1.58;;
5696;SDS011;2873;50.966;7.210;2023-03-23T16:43:16;5.50;;;1.30;;
5696;SDS011;2873;50.966;7.210;2023-03-23T16:45:43;2.85;;;1.23;;
5696;SDS011;2873;50.966;7.210;2023-03-23T16:48:10;3.50;;;1.30;;
5696;SDS011;2873;50.966;7.210;2023-03-23T16:50:37;3.70;;;1.20;;
5696;SDS011;2873;50.966;7.210;2023-03-23T16:53:04;3.75;;;1.13;;